Terminal Aerodrome Forecast
Issued by NWS

Home | Current Version | Previous Version | Text Only | Print | Product List | Glossary On
Versions: 1 2 3 4 5 6 7 8 9 10 11 12 13 14 15
000
FTUS44 KCRP 211125
TAFLRD
TAF
KLRD 211125Z 2112/2212 10006KT P6SM VCSH SCT030 OVC070
      TEMPO 2112/2116 -SHRA BKN020 OVC070
     FM212000 14013KT P6SM VCTS SCT020CB OVC035
     FM220500 13008KT P6SM VCSH BKN015
      TEMPO 2208/2212 5SM -SHRA BR BKN015 OVC150=

USA.gov is the U.S. government's official web portal to all federal, state and local government web resources and services.